BEL3YT EBBR-EIDW
Flight info
| Callsign | BEL3YT |
|---|---|
| Flight time | 1h 14m |
| Altitude | 34000 |
| Route | DENUT L610 KOPUL DCT SABER DCT SIVDA DCT RODOL UL28 LELDO M145 BAGSO BAGSO4L |
| Aircraft | A320/M-SDE3FGHIRWY/LB1 |
Departure
| Time | 2026-05-04 22:10 |
|---|---|
| Airport | Brussels Airport (EBBR) |
Arrival
| Time | 2026-05-04 23:24 |
|---|---|
| Airport | Dublin Airport (EIDW) |
| Time | Latitude | Longitude | Altitude | Speed | Heading |
|---|---|---|---|---|---|
| 2026-05-04 22:05 | 50.89905 | 4.48974 | 136 ft | 0 kts | 65° |
| 2026-05-04 22:06 | 50.89906 | 4.48978 | 136 ft | 3 kts | 65° |
| 2026-05-04 22:06 | 50.89933 | 4.49069 | 136 ft | 15 kts | 65° |
| 2026-05-04 22:07 | 50.89982 | 4.49257 | 133 ft | 20 kts | 69° |
| 2026-05-04 22:07 | 50.90070 | 4.49435 | 130 ft | 22 kts | 21° |
| 2026-05-04 22:07 | 50.90227 | 4.49500 | 124 ft | 25 kts | 14° |
| 2026-05-04 22:07 | 50.90403 | 4.49566 | 124 ft | 27 kts | 12° |
| 2026-05-04 22:08 | 50.90587 | 4.49644 | 124 ft | 28 kts | 15° |
| 2026-05-04 22:08 | 50.90775 | 4.49723 | 124 ft | 28 kts | 14° |
| 2026-05-04 22:08 | 50.90960 | 4.49831 | 119 ft | 29 kts | 40° |
| 2026-05-04 22:08 | 50.91102 | 4.49945 | 119 ft | 10 kts | 1° |
| 2026-05-04 22:09 | 50.91139 | 4.49893 | 119 ft | 7 kts | 265° |
| 2026-05-04 22:09 | 50.91122 | 4.49825 | 116 ft | 6 kts | 246° |
| 2026-05-04 22:09 | 50.91085 | 4.49698 | 117 ft | 32 kts | 244° |
| 2026-05-04 22:09 | 50.90882 | 4.48996 | 121 ft | 103 kts | 245° |
| 2026-05-04 22:10 | 50.90512 | 4.47711 | 125 ft | 155 kts | 244° |
| 2026-05-04 22:10 | 50.90042 | 4.46007 | 486 ft | 171 kts | 250° |
| 2026-05-04 22:10 | 50.89789 | 4.44217 | 1164 ft | 167 kts | 275° |
| 2026-05-04 22:10 | 50.89994 | 4.42436 | 1773 ft | 167 kts | 293° |
| 2026-05-04 22:11 | 50.90484 | 4.40740 | 2243 ft | 173 kts | 301° |
| 2026-05-04 22:11 | 50.91087 | 4.39056 | 2801 ft | 176 kts | 297° |
| 2026-05-04 22:11 | 50.91492 | 4.37298 | 3610 ft | 160 kts | 292° |
| 2026-05-04 22:11 | 50.91754 | 4.35588 | 4094 ft | 168 kts | 277° |
| 2026-05-04 22:12 | 50.91832 | 4.33606 | 4329 ft | 189 kts | 275° |
| 2026-05-04 22:12 | 50.91891 | 4.31467 | 4766 ft | 198 kts | 276° |
| 2026-05-04 22:12 | 50.92181 | 4.29351 | 5356 ft | 195 kts | 295° |
| 2026-05-04 22:12 | 50.92815 | 4.27546 | 6119 ft | 181 kts | 309° |
| 2026-05-04 22:13 | 50.93540 | 4.26048 | 6893 ft | 162 kts | 312° |
| 2026-05-04 22:13 | 50.94245 | 4.24721 | 7321 ft | 163 kts | 315° |
| 2026-05-04 22:13 | 50.95044 | 4.23224 | 7270 ft | 195 kts | 311° |
| 2026-05-04 22:13 | 50.95981 | 4.21438 | 7267 ft | 225 kts | 312° |
| 2026-05-04 22:14 | 50.97047 | 4.19382 | 7251 ft | 259 kts | 311° |
| 2026-05-04 22:14 | 50.98228 | 4.17068 | 7448 ft | 277 kts | 310° |
| 2026-05-04 22:14 | 50.99437 | 4.14667 | 8262 ft | 280 kts | 310° |
| 2026-05-04 22:14 | 51.00658 | 4.12231 | 9067 ft | 284 kts | 309° |
| 2026-05-04 22:15 | 51.01892 | 4.09758 | 9852 ft | 288 kts | 309° |
| 2026-05-04 22:15 | 51.03157 | 4.07215 | 10352 ft | 302 kts | 308° |
| 2026-05-04 22:15 | 51.04510 | 4.04496 | 10584 ft | 324 kts | 308° |
| 2026-05-04 22:15 | 51.05931 | 4.01633 | 11125 ft | 333 kts | 308° |
| 2026-05-04 22:16 | 51.07374 | 3.98717 | 11823 ft | 337 kts | 309° |
| 2026-05-04 22:16 | 51.08831 | 3.95772 | 12560 ft | 341 kts | 309° |
| 2026-05-04 22:16 | 51.10304 | 3.92799 | 13288 ft | 344 kts | 309° |
| 2026-05-04 22:16 | 51.11794 | 3.89793 | 13962 ft | 348 kts | 309° |
| 2026-05-04 22:17 | 51.13297 | 3.86758 | 14587 ft | 351 kts | 309° |
| 2026-05-04 22:17 | 51.14815 | 3.83693 | 15197 ft | 354 kts | 308° |
| 2026-05-04 22:17 | 51.16346 | 3.80596 | 15805 ft | 358 kts | 308° |
| 2026-05-04 22:17 | 51.17889 | 3.77454 | 16388 ft | 362 kts | 308° |
| 2026-05-04 22:18 | 51.18918 | 3.75351 | 16783 ft | 364 kts | 308° |
| 2026-05-04 22:18 | 51.20486 | 3.72151 | 17380 ft | 368 kts | 308° |
| 2026-05-04 22:18 | 51.22526 | 3.67797 | 18164 ft | 372 kts | 301° |
| 2026-05-04 22:18 | 51.23682 | 3.64094 | 18693 ft | 375 kts | 290° |
| 2026-05-04 22:19 | 51.24384 | 3.60085 | 19223 ft | 377 kts | 281° |
| 2026-05-04 22:19 | 51.24921 | 3.55975 | 19775 ft | 379 kts | 281° |
| 2026-05-04 22:19 | 51.25464 | 3.51848 | 20338 ft | 381 kts | 281° |
| 2026-05-04 22:19 | 51.25832 | 3.49048 | 20698 ft | 382 kts | 281° |
| 2026-05-04 22:20 | 51.26378 | 3.44889 | 21276 ft | 384 kts | 281° |
| 2026-05-04 22:20 | 51.26923 | 3.40757 | 21817 ft | 386 kts | 281° |
| 2026-05-04 22:20 | 51.27485 | 3.36492 | 22335 ft | 389 kts | 281° |
| 2026-05-04 22:20 | 51.28038 | 3.32250 | 22883 ft | 391 kts | 281° |
| 2026-05-04 22:21 | 51.28591 | 3.27983 | 23420 ft | 393 kts | 281° |
| 2026-05-04 22:21 | 51.29135 | 3.23754 | 23887 ft | 395 kts | 281° |
| 2026-05-04 22:21 | 51.29685 | 3.19452 | 24342 ft | 396 kts | 281° |
| 2026-05-04 22:21 | 51.30234 | 3.15139 | 24771 ft | 397 kts | 280° |
| 2026-05-04 22:22 | 51.30781 | 3.10816 | 25215 ft | 398 kts | 280° |
| 2026-05-04 22:22 | 51.31331 | 3.06465 | 25542 ft | 402 kts | 280° |
| 2026-05-04 22:22 | 51.31883 | 3.02071 | 25912 ft | 404 kts | 280° |
| 2026-05-04 22:22 | 51.32438 | 2.97647 | 26231 ft | 407 kts | 279° |
| 2026-05-04 22:23 | 51.32993 | 2.93197 | 26568 ft | 410 kts | 279° |
| 2026-05-04 22:23 | 51.33554 | 2.88715 | 26929 ft | 412 kts | 280° |
| 2026-05-04 22:23 | 51.34116 | 2.84210 | 27268 ft | 415 kts | 279° |
| 2026-05-04 22:23 | 51.34677 | 2.79676 | 27609 ft | 417 kts | 278° |
| 2026-05-04 22:24 | 51.35241 | 2.75113 | 27917 ft | 420 kts | 279° |
| 2026-05-04 22:24 | 51.35808 | 2.70522 | 28247 ft | 422 kts | 279° |
| 2026-05-04 22:24 | 51.36379 | 2.65902 | 28548 ft | 425 kts | 279° |
| 2026-05-04 22:24 | 51.36954 | 2.61257 | 28870 ft | 426 kts | 278° |
| 2026-05-04 22:25 | 51.37530 | 2.56589 | 29187 ft | 429 kts | 278° |
| 2026-05-04 22:25 | 51.38105 | 2.51898 | 29494 ft | 430 kts | 278° |
| 2026-05-04 22:25 | 51.38678 | 2.47186 | 29795 ft | 432 kts | 279° |
| 2026-05-04 22:25 | 51.39250 | 2.42451 | 30073 ft | 434 kts | 279° |
| 2026-05-04 22:26 | 51.39823 | 2.37696 | 30333 ft | 436 kts | 278° |
| 2026-05-04 22:26 | 51.40393 | 2.32929 | 30614 ft | 436 kts | 278° |
| 2026-05-04 22:26 | 51.40963 | 2.28150 | 30859 ft | 437 kts | 278° |
| 2026-05-04 22:26 | 51.41538 | 2.23362 | 31104 ft | 439 kts | 278° |
| 2026-05-04 22:27 | 51.42126 | 2.18558 | 31371 ft | 439 kts | 279° |
| 2026-05-04 22:27 | 51.42717 | 2.13765 | 31706 ft | 437 kts | 279° |
| 2026-05-04 22:27 | 51.43305 | 2.08997 | 32020 ft | 436 kts | 279° |
| 2026-05-04 22:27 | 51.43888 | 2.04229 | 32334 ft | 435 kts | 279° |
| 2026-05-04 22:28 | 51.44461 | 1.99477 | 32657 ft | 434 kts | 278° |
| 2026-05-04 22:28 | 51.45025 | 1.94725 | 32976 ft | 433 kts | 278° |
| 2026-05-04 22:28 | 51.45582 | 1.89986 | 33307 ft | 432 kts | 278° |
| 2026-05-04 22:28 | 51.46135 | 1.85241 | 33578 ft | 433 kts | 278° |
| 2026-05-04 22:29 | 51.46685 | 1.80503 | 33877 ft | 432 kts | 278° |
| 2026-05-04 22:29 | 51.47231 | 1.75781 | 34015 ft | 430 kts | 278° |
| 2026-05-04 22:29 | 51.47773 | 1.71095 | 34040 ft | 423 kts | 278° |
| 2026-05-04 22:30 | 51.48827 | 1.61859 | 34041 ft | 420 kts | 278° |
| 2026-05-04 22:30 | 51.49873 | 1.52648 | 34045 ft | 419 kts | 278° |
| 2026-05-04 22:31 | 51.50917 | 1.43437 | 34057 ft | 419 kts | 278° |
| 2026-05-04 22:31 | 51.51951 | 1.34248 | 34047 ft | 418 kts | 278° |
| 2026-05-04 22:32 | 51.52968 | 1.25071 | 34045 ft | 417 kts | 278° |
| 2026-05-04 22:32 | 51.54776 | 1.16225 | 34040 ft | 422 kts | 297° |
| 2026-05-04 22:33 | 51.58452 | 1.08946 | 34041 ft | 427 kts | 318° |
| 2026-05-04 22:33 | 51.63253 | 1.03284 | 34036 ft | 428 kts | 322° |
| 2026-05-04 22:34 | 51.68073 | 0.97661 | 34034 ft | 428 kts | 321° |
| 2026-05-04 22:34 | 51.72820 | 0.91872 | 34044 ft | 427 kts | 318° |
| 2026-05-04 22:35 | 51.77321 | 0.85618 | 34039 ft | 427 kts | 316° |
| 2026-05-04 22:35 | 51.81738 | 0.79246 | 34046 ft | 427 kts | 316° |
| 2026-05-04 22:36 | 51.86209 | 0.72919 | 34038 ft | 427 kts | 317° |
| 2026-05-04 22:36 | 51.90710 | 0.66648 | 34037 ft | 427 kts | 317° |
| 2026-05-04 22:37 | 51.95213 | 0.60378 | 34046 ft | 427 kts | 317° |
| 2026-05-04 22:37 | 51.99707 | 0.54073 | 34034 ft | 427 kts | 317° |
| 2026-05-04 22:38 | 52.04191 | 0.47755 | 34039 ft | 427 kts | 317° |
| 2026-05-04 22:38 | 52.08671 | 0.41422 | 34051 ft | 426 kts | 316° |
| 2026-05-04 22:39 | 52.13138 | 0.35086 | 34055 ft | 426 kts | 316° |
| 2026-05-04 22:39 | 52.17590 | 0.28755 | 34042 ft | 425 kts | 316° |
| 2026-05-04 22:40 | 52.22020 | 0.22444 | 34050 ft | 425 kts | 316° |
| 2026-05-04 22:40 | 52.26495 | 0.16045 | 34038 ft | 425 kts | 316° |
| 2026-05-04 22:41 | 52.30926 | 0.09692 | 34050 ft | 424 kts | 316° |
| 2026-05-04 22:41 | 52.35351 | 0.03226 | 34048 ft | 422 kts | 312° |
| 2026-05-04 22:42 | 52.39062 | -0.04162 | 34042 ft | 421 kts | 308° |
| 2026-05-04 22:42 | 52.42697 | -0.11709 | 34023 ft | 422 kts | 308° |
| 2026-05-04 22:43 | 52.46369 | -0.19355 | 34032 ft | 424 kts | 308° |
| 2026-05-04 22:43 | 52.49901 | -0.26734 | 34023 ft | 424 kts | 308° |
| 2026-05-04 22:44 | 52.53557 | -0.34376 | 34024 ft | 425 kts | 308° |
| 2026-05-04 22:44 | 52.57228 | -0.42085 | 34021 ft | 426 kts | 308° |
| 2026-05-04 22:45 | 52.60879 | -0.49775 | 34041 ft | 427 kts | 308° |
| 2026-05-04 22:45 | 52.66368 | -0.61387 | 34031 ft | 428 kts | 308° |
| 2026-05-04 22:46 | 52.70035 | -0.69181 | 34044 ft | 428 kts | 308° |
| 2026-05-04 22:46 | 52.73687 | -0.76957 | 34026 ft | 428 kts | 308° |
| 2026-05-04 22:47 | 52.77355 | -0.84803 | 34038 ft | 429 kts | 309° |
| 2026-05-04 22:47 | 52.81015 | -0.92648 | 34040 ft | 429 kts | 309° |
| 2026-05-04 22:48 | 52.84659 | -1.00478 | 34033 ft | 430 kts | 309° |
| 2026-05-04 22:48 | 52.88302 | -1.08335 | 34035 ft | 430 kts | 310° |
| 2026-05-04 22:49 | 52.91979 | -1.16275 | 34037 ft | 431 kts | 310° |
| 2026-05-04 22:49 | 52.95618 | -1.24164 | 34040 ft | 432 kts | 309° |
| 2026-05-04 22:50 | 52.99258 | -1.32099 | 34045 ft | 432 kts | 309° |
| 2026-05-04 22:50 | 53.02278 | -1.38704 | 34030 ft | 432 kts | 309° |
| 2026-05-04 22:51 | 53.05904 | -1.46633 | 34034 ft | 432 kts | 309° |
| 2026-05-04 22:51 | 53.09543 | -1.54602 | 34031 ft | 432 kts | 309° |
| 2026-05-04 22:52 | 53.13190 | -1.62634 | 34033 ft | 432 kts | 309° |
| 2026-05-04 22:52 | 53.16819 | -1.70655 | 34043 ft | 431 kts | 309° |
| 2026-05-04 22:53 | 53.20425 | -1.78659 | 34047 ft | 431 kts | 309° |
| 2026-05-04 22:53 | 53.23938 | -1.86789 | 34050 ft | 433 kts | 302° |
| 2026-05-04 22:54 | 53.26669 | -1.95804 | 34077 ft | 432 kts | 298° |
| 2026-05-04 22:54 | 53.29348 | -2.04793 | 34086 ft | 431 kts | 298° |
| 2026-05-04 22:55 | 53.32021 | -2.13751 | 34087 ft | 430 kts | 298° |
| 2026-05-04 22:55 | 53.34668 | -2.22698 | 34088 ft | 430 kts | 298° |
| 2026-05-04 22:56 | 53.36829 | -2.32039 | 34082 ft | 431 kts | 289° |
| 2026-05-04 22:56 | 53.38655 | -2.41645 | 34079 ft | 431 kts | 289° |
| 2026-05-04 22:57 | 53.40471 | -2.51234 | 34075 ft | 431 kts | 289° |
| 2026-05-04 22:57 | 53.42279 | -2.60804 | 34072 ft | 431 kts | 289° |
| 2026-05-04 22:58 | 53.44076 | -2.70376 | 34071 ft | 430 kts | 289° |
| 2026-05-04 22:58 | 53.45878 | -2.80029 | 34070 ft | 430 kts | 289° |
| 2026-05-04 22:59 | 53.47668 | -2.89639 | 34073 ft | 430 kts | 289° |
| 2026-05-04 22:59 | 53.49445 | -2.99227 | 34070 ft | 430 kts | 289° |
| 2026-05-04 23:00 | 53.51208 | -3.08820 | 34069 ft | 430 kts | 289° |
| 2026-05-04 23:00 | 53.52952 | -3.18361 | 34068 ft | 430 kts | 289° |
| 2026-05-04 23:01 | 53.54703 | -3.27962 | 34074 ft | 432 kts | 289° |
| 2026-05-04 23:01 | 53.56480 | -3.37764 | 34085 ft | 441 kts | 288° |
| 2026-05-04 23:02 | 53.58273 | -3.47730 | 34085 ft | 443 kts | 288° |
| 2026-05-04 23:02 | 53.60045 | -3.57652 | 34086 ft | 443 kts | 288° |
| 2026-05-04 23:03 | 53.61860 | -3.67476 | 34083 ft | 441 kts | 293° |
| 2026-05-04 23:03 | 53.64174 | -3.77109 | 34088 ft | 441 kts | 294° |
| 2026-05-04 23:04 | 53.66457 | -3.86624 | 33682 ft | 441 kts | 294° |
| 2026-05-04 23:04 | 53.67602 | -3.91411 | 32971 ft | 439 kts | 293° |
| 2026-05-04 23:04 | 53.68735 | -3.96172 | 32391 ft | 434 kts | 293° |
| 2026-05-04 23:05 | 53.69849 | -4.00875 | 31856 ft | 429 kts | 292° |
| 2026-05-04 23:05 | 53.70943 | -4.05538 | 31315 ft | 426 kts | 291° |
| 2026-05-04 23:05 | 53.71683 | -4.10350 | 30792 ft | 423 kts | 278° |
| 2026-05-04 23:05 | 53.71920 | -4.15286 | 30260 ft | 421 kts | 275° |
| 2026-05-04 23:06 | 53.72106 | -4.20195 | 29668 ft | 418 kts | 275° |
| 2026-05-04 23:06 | 53.72288 | -4.25071 | 29090 ft | 414 kts | 275° |
| 2026-05-04 23:06 | 53.72466 | -4.29895 | 28523 ft | 410 kts | 275° |
| 2026-05-04 23:06 | 53.72641 | -4.34687 | 27978 ft | 407 kts | 275° |
| 2026-05-04 23:07 | 53.72813 | -4.39434 | 27443 ft | 404 kts | 275° |
| 2026-05-04 23:07 | 53.72984 | -4.44148 | 26920 ft | 401 kts | 275° |
| 2026-05-04 23:07 | 53.73152 | -4.48829 | 26417 ft | 398 kts | 275° |
| 2026-05-04 23:07 | 53.73317 | -4.53467 | 25924 ft | 395 kts | 275° |
| 2026-05-04 23:08 | 53.73482 | -4.58072 | 25392 ft | 389 kts | 275° |
| 2026-05-04 23:08 | 53.73641 | -4.62612 | 24566 ft | 385 kts | 275° |
| 2026-05-04 23:08 | 53.73797 | -4.67100 | 23761 ft | 381 kts | 274° |
| 2026-05-04 23:08 | 53.73946 | -4.71537 | 22862 ft | 376 kts | 274° |
| 2026-05-04 23:09 | 53.74089 | -4.75916 | 22009 ft | 371 kts | 274° |
| 2026-05-04 23:09 | 53.74229 | -4.80245 | 21191 ft | 366 kts | 274° |
| 2026-05-04 23:09 | 53.74367 | -4.84507 | 20408 ft | 361 kts | 273° |
| 2026-05-04 23:09 | 53.74505 | -4.88706 | 19631 ft | 356 kts | 273° |
| 2026-05-04 23:10 | 53.74642 | -4.92862 | 18874 ft | 352 kts | 273° |
| 2026-05-04 23:10 | 53.74775 | -4.96957 | 18117 ft | 347 kts | 272° |
| 2026-05-04 23:10 | 53.74904 | -5.01008 | 17299 ft | 343 kts | 272° |
| 2026-05-04 23:10 | 53.75031 | -5.05006 | 16537 ft | 339 kts | 272° |
| 2026-05-04 23:11 | 53.75155 | -5.08951 | 15798 ft | 334 kts | 272° |
| 2026-05-04 23:11 | 53.75212 | -5.12848 | 15073 ft | 329 kts | 265° |
| 2026-05-04 23:11 | 53.74790 | -5.16612 | 14389 ft | 325 kts | 252° |
| 2026-05-04 23:11 | 53.74060 | -5.20201 | 13658 ft | 321 kts | 251° |
| 2026-05-04 23:12 | 53.73342 | -5.23723 | 13107 ft | 311 kts | 252° |
| 2026-05-04 23:12 | 53.72657 | -5.27096 | 12736 ft | 297 kts | 252° |
| 2026-05-04 23:12 | 53.72004 | -5.30320 | 12372 ft | 284 kts | 252° |
| 2026-05-04 23:12 | 53.71380 | -5.33407 | 12030 ft | 272 kts | 252° |
| 2026-05-04 23:13 | 53.70772 | -5.36393 | 11691 ft | 268 kts | 252° |
| 2026-05-04 23:13 | 53.70164 | -5.39364 | 11348 ft | 268 kts | 252° |
| 2026-05-04 23:13 | 53.69557 | -5.42330 | 11010 ft | 266 kts | 252° |
| 2026-05-04 23:13 | 53.68955 | -5.45286 | 10662 ft | 267 kts | 252° |
| 2026-05-04 23:14 | 53.68362 | -5.48256 | 10309 ft | 267 kts | 256° |
| 2026-05-04 23:14 | 53.68062 | -5.51279 | 9980 ft | 265 kts | 269° |
| 2026-05-04 23:14 | 53.68117 | -5.54407 | 9755 ft | 265 kts | 274° |
| 2026-05-04 23:14 | 53.68202 | -5.57445 | 9620 ft | 254 kts | 273° |
| 2026-05-04 23:15 | 53.68279 | -5.60368 | 9448 ft | 246 kts | 273° |
| 2026-05-04 23:15 | 53.68260 | -5.63224 | 9149 ft | 243 kts | 263° |
| 2026-05-04 23:15 | 53.67845 | -5.65986 | 8790 ft | 243 kts | 249° |
| 2026-05-04 23:15 | 53.67045 | -5.68487 | 8505 ft | 243 kts | 236° |
| 2026-05-04 23:16 | 53.65955 | -5.70645 | 8380 ft | 242 kts | 230° |
| 2026-05-04 23:16 | 53.64660 | -5.72472 | 8244 ft | 246 kts | 208° |
| 2026-05-04 23:16 | 53.62989 | -5.73119 | 8124 ft | 251 kts | 179° |
| 2026-05-04 23:16 | 53.61304 | -5.72333 | 7882 ft | 257 kts | 149° |
| 2026-05-04 23:17 | 53.59942 | -5.70418 | 7527 ft | 256 kts | 139° |
| 2026-05-04 23:17 | 53.58403 | -5.69053 | 7170 ft | 250 kts | 174° |
| 2026-05-04 23:17 | 53.56751 | -5.69495 | 6865 ft | 241 kts | 210° |
| 2026-05-04 23:17 | 53.55418 | -5.71142 | 6567 ft | 237 kts | 229° |
| 2026-05-04 23:18 | 53.54289 | -5.73156 | 6287 ft | 237 kts | 228° |
| 2026-05-04 23:18 | 53.53098 | -5.75071 | 6001 ft | 236 kts | 226° |
| 2026-05-04 23:18 | 53.51889 | -5.76928 | 5713 ft | 235 kts | 225° |
| 2026-05-04 23:18 | 53.50681 | -5.78760 | 5429 ft | 233 kts | 225° |
| 2026-05-04 23:19 | 53.49481 | -5.80579 | 5147 ft | 232 kts | 225° |
| 2026-05-04 23:19 | 53.48288 | -5.82386 | 4866 ft | 230 kts | 225° |
| 2026-05-04 23:19 | 53.47101 | -5.84185 | 4573 ft | 230 kts | 225° |
| 2026-05-04 23:19 | 53.45914 | -5.85986 | 4284 ft | 230 kts | 225° |
| 2026-05-04 23:20 | 53.44727 | -5.87795 | 4000 ft | 231 kts | 224° |
| 2026-05-04 23:20 | 53.43538 | -5.89609 | 3720 ft | 231 kts | 224° |
| 2026-05-04 23:20 | 53.42350 | -5.91428 | 3438 ft | 232 kts | 224° |
| 2026-05-04 23:20 | 53.41193 | -5.93310 | 3148 ft | 231 kts | 234° |
| 2026-05-04 23:21 | 53.40528 | -5.95659 | 2867 ft | 226 kts | 261° |
| 2026-05-04 23:21 | 53.40500 | -5.98253 | 2599 ft | 223 kts | 277° |
| 2026-05-04 23:21 | 53.40653 | -6.00823 | 2498 ft | 219 kts | 278° |
| 2026-05-04 23:21 | 53.40802 | -6.03354 | 2506 ft | 218 kts | 277° |
| 2026-05-04 23:22 | 53.40948 | -6.05884 | 2449 ft | 218 kts | 277° |
| 2026-05-04 23:22 | 53.41092 | -6.08416 | 2223 ft | 217 kts | 277° |
| 2026-05-04 23:22 | 53.41234 | -6.10929 | 1948 ft | 217 kts | 277° |
| 2026-05-04 23:22 | 53.41376 | -6.13434 | 1654 ft | 216 kts | 277° |
| 2026-05-04 23:23 | 53.41515 | -6.15920 | 1354 ft | 208 kts | 277° |
| 2026-05-04 23:23 | 53.41643 | -6.18207 | 1102 ft | 186 kts | 276° |
| 2026-05-04 23:23 | 53.41759 | -6.20272 | 819 ft | 170 kts | 276° |
| 2026-05-04 23:23 | 53.41865 | -6.22175 | 587 ft | 158 kts | 276° |
| 2026-05-04 23:24 | 53.41961 | -6.23942 | 374 ft | 148 kts | 276° |
| 2026-05-04 23:24 | 53.42065 | -6.25609 | 233 ft | 135 kts | 276° |
| 2026-05-04 23:24 | 53.42129 | -6.26881 | 232 ft | 84 kts | 275° |
| 2026-05-04 23:24 | 53.42168 | -6.27583 | 231 ft | 43 kts | 275° |
| 2026-05-04 23:25 | 53.42233 | -6.27930 | 232 ft | 26 kts | 295° |
| 2026-05-04 23:25 | 53.42277 | -6.28063 | 228 ft | 0 kts | 302° |
| 2026-05-04 23:26 | 53.42290 | -6.28096 | 228 ft | 9 kts | 306° |
| 2026-05-04 23:26 | 53.42315 | -6.28125 | 226 ft | 1 kts | 337° |
| 2026-05-04 23:26 | 53.42341 | -6.28122 | 226 ft | 6 kts | 25° |
| 2026-05-04 23:27 | 53.42362 | -6.28034 | 225 ft | 11 kts | 90° |
| 2026-05-04 23:27 | 53.42354 | -6.27886 | 225 ft | 15 kts | 96° |
| 2026-05-04 23:27 | 53.42342 | -6.27689 | 225 ft | 19 kts | 95° |
| 2026-05-04 23:27 | 53.42330 | -6.27449 | 225 ft | 23 kts | 96° |
| 2026-05-04 23:28 | 53.42315 | -6.27164 | 225 ft | 26 kts | 94° |
| 2026-05-04 23:28 | 53.42298 | -6.26842 | 225 ft | 29 kts | 95° |
| 2026-05-04 23:28 | 53.42280 | -6.26507 | 225 ft | 26 kts | 94° |
| 2026-05-04 23:28 | 53.42268 | -6.26291 | 225 ft | 14 kts | 95° |
| 2026-05-04 23:29 | 53.42259 | -6.26127 | 225 ft | 14 kts | 95° |
| 2026-05-04 23:29 | 53.42249 | -6.25962 | 226 ft | 14 kts | 96° |
| 2026-05-04 23:29 | 53.42240 | -6.25797 | 225 ft | 14 kts | 95° |
| 2026-05-04 23:29 | 53.42234 | -6.25688 | 225 ft | 14 kts | 94° |
| 2026-05-04 23:30 | 53.42226 | -6.25519 | 225 ft | 15 kts | 95° |
| 2026-05-04 23:30 | 53.42216 | -6.25347 | 225 ft | 15 kts | 95° |
| 2026-05-04 23:30 | 53.42206 | -6.25173 | 229 ft | 15 kts | 95° |
| 2026-05-04 23:30 | 53.42227 | -6.25013 | 228 ft | 15 kts | 57° |
| 2026-05-04 23:31 | 53.42306 | -6.24869 | 225 ft | 18 kts | 46° |
| 2026-05-04 23:31 | 53.42408 | -6.24742 | 226 ft | 19 kts | 4° |
| 2026-05-04 23:31 | 53.42526 | -6.24813 | 225 ft | 9 kts | 336° |
| 2026-05-04 23:31 | 53.42569 | -6.24823 | 225 ft | 3 kts | 36° |
| 2026-05-04 23:32 | 53.42579 | -6.24788 | 225 ft | 3 kts | 69° |
| 2026-05-04 23:32 | 53.42585 | -6.24762 | 226 ft | 2 kts | 70° |
| 2026-05-04 23:32 | 53.42588 | -6.24746 | 225 ft | 1 kts | 70° |
| 2026-05-04 23:32 | 53.42589 | -6.24743 | 225 ft | 0 kts | 70° |